createdAt,value
2018-12-20T00:00:15.642Z,77.2
2018-12-20T00:03:15.416Z,77.3
2018-12-20T00:06:15.633Z,77.8
2018-12-20T00:09:15.273Z,77.8
2018-12-20T00:12:15.124Z,77.8
2018-12-20T00:15:15.818Z,77.6
2018-12-20T00:18:15.485Z,77.5
2018-12-20T00:21:15.607Z,77.2
2018-12-20T00:24:15.372Z,75.1
2018-12-20T00:27:15.022Z,74.7
2018-12-20T00:30:15.858Z,75.0
2018-12-20T00:33:15.714Z,74.6
2018-12-20T00:36:15.553Z,75.7
2018-12-20T00:39:15.205Z,73.8
2018-12-20T00:42:15.172Z,74.7
2018-12-20T00:45:15.081Z,75.3
2018-12-20T00:48:15.708Z,75.4
2018-12-20T00:51:15.202Z,72.9
2018-12-20T00:54:15.088Z,72.9
2018-12-20T00:57:15.775Z,72.8
2018-12-20T01:00:15.720Z,73.6
2018-12-20T01:03:15.132Z,73.5
2018-12-20T01:06:15.121Z,73.1
2018-12-20T01:09:15.669Z,74.7
2018-12-20T01:12:15.267Z,75.1
2018-12-20T01:15:15.985Z,74.8
2018-12-20T01:18:15.799Z,75.2
2018-12-20T01:21:15.828Z,73.7
2018-12-20T01:24:15.526Z,73.0
2018-12-20T01:27:15.369Z,72.8
2018-12-20T01:30:15.321Z,73.2
2018-12-20T01:33:14.997Z,73.6
2018-12-20T01:36:15.795Z,74.1
2018-12-20T01:39:15.591Z,73.0
2018-12-20T01:42:15.394Z,73.7
2018-12-20T01:45:15.078Z,74.3
2018-12-20T01:48:15.793Z,74.6
2018-12-20T01:51:15.006Z,74.0
2018-12-20T01:54:15.827Z,73.8
2018-12-20T01:57:15.781Z,73.7
2018-12-20T02:00:15.494Z,73.2
2018-12-20T02:03:15.130Z,73.0
2018-12-20T02:06:15.118Z,74.3
2018-12-20T02:09:15.925Z,74.1
2018-12-20T02:12:15.704Z,73.3
2018-12-20T02:15:15.522Z,73.4
2018-12-20T02:18:15.364Z,73.3
2018-12-20T02:21:15.375Z,73.9
2018-12-20T02:24:15.478Z,73.7
2018-12-20T02:27:15.314Z,74.3
2018-12-20T02:30:15.508Z,74.1
2018-12-20T02:33:15.646Z,74.1
2018-12-20T02:36:15.485Z,74.3
2018-12-20T02:39:15.481Z,74.1
2018-12-20T02:42:15.558Z,75.1
2018-12-20T02:45:15.653Z,75.5
2018-12-20T02:48:15.834Z,74.2
2018-12-20T02:51:15.825Z,73.7
2018-12-20T02:54:14.952Z,73.7
2018-12-20T02:57:14.966Z,73.6
2018-12-20T03:00:15.026Z,73.8
2018-12-20T03:03:15.252Z,73.1
2018-12-20T03:06:15.385Z,73.6
2018-12-20T03:09:15.145Z,74.2
2018-12-20T03:12:15.143Z,73.5
2018-12-20T03:15:19.831Z,74.6
2018-12-20T03:18:15.582Z,74.3
2018-12-20T03:21:15.729Z,73.8
2018-12-20T03:24:16.066Z,73.9
2018-12-20T03:27:15.009Z,74.1
2018-12-20T03:30:15.432Z,74.6
2018-12-20T03:33:15.438Z,75.0
2018-12-20T03:36:15.510Z,75.1
2018-12-20T03:39:15.418Z,75.4
2018-12-20T03:42:15.407Z,75.4
2018-12-20T03:45:15.392Z,75.8
2018-12-20T03:48:16.064Z,74.5
2018-12-20T03:51:16.024Z,73.9
2018-12-20T03:54:15.993Z,74.2
2018-12-20T03:57:16.064Z,74.2
2018-12-20T04:00:15.967Z,74.8
2018-12-20T04:03:15.615Z,74.3
2018-12-20T04:06:15.544Z,74.1
2018-12-20T04:09:15.622Z,73.6
2018-12-20T04:12:15.808Z,73.6
2018-12-20T04:15:15.457Z,74.8
2018-12-20T04:18:15.719Z,75.1
2018-12-20T04:21:15.356Z,75.8
2018-12-20T04:24:15.424Z,78.6
2018-12-20T04:27:15.205Z,79.0
2018-12-20T04:30:14.962Z,78.3
2018-12-20T04:33:15.859Z,78.1
2018-12-20T04:36:15.711Z,76.6
2018-12-20T04:39:15.592Z,77.1
2018-12-20T04:42:15.718Z,77.2
2018-12-20T04:45:15.490Z,76.5
2018-12-20T04:48:15.053Z,76.4
2018-12-20T04:51:15.643Z,75.8
2018-12-20T04:54:15.849Z,75.7
2018-12-20T04:57:15.707Z,76.1
2018-12-20T05:00:15.853Z,76.1
2018-12-20T05:03:15.317Z,76.1
2018-12-20T05:06:15.468Z,76.0
2018-12-20T05:09:15.025Z,75.5
2018-12-20T05:12:16.098Z,75.6
2018-12-20T05:15:15.945Z,75.5
2018-12-20T05:18:15.107Z,75.4
2018-12-20T05:21:15.852Z,75.3
2018-12-20T05:24:15.671Z,74.1
2018-12-20T05:27:15.886Z,74.8
2018-12-20T05:30:15.719Z,74.1
2018-12-20T05:33:15.541Z,74.9
2018-12-20T05:36:15.889Z,73.8
2018-12-20T05:39:15.907Z,78.4
2018-12-20T05:42:15.500Z,78.6
2018-12-20T05:45:15.647Z,77.4
2018-12-20T05:48:15.461Z,78.1
2018-12-20T05:51:15.388Z,77.2
2018-12-20T05:54:15.136Z,80.6
2018-12-20T05:57:15.971Z,79.9
2018-12-20T06:00:15.475Z,79.7
2018-12-20T06:03:15.320Z,77.8
2018-12-20T06:06:15.076Z,78.1
2018-12-20T06:09:14.909Z,78.6
2018-12-20T06:12:15.768Z,79.4
2018-12-20T06:15:15.581Z,78.6
2018-12-20T06:18:15.428Z,76.2
2018-12-20T06:21:15.746Z,77.7
2018-12-20T06:24:15.335Z,76.4
2018-12-20T06:27:15.019Z,77.4
2018-12-20T06:30:15.825Z,75.7
2018-12-20T06:33:15.521Z,77.1
2018-12-20T06:36:15.486Z,76.5
2018-12-20T06:39:15.187Z,75.3
2018-12-20T06:42:14.941Z,76.2
2018-12-20T06:45:15.711Z,75.9
2018-12-20T06:48:15.411Z,77.0
2018-12-20T06:51:15.158Z,77.3
2018-12-20T06:54:15.902Z,77.4
2018-12-20T06:57:15.883Z,77.7
2018-12-20T07:00:15.093Z,77.5
2018-12-20T07:03:15.881Z,77.2
2018-12-20T07:06:15.723Z,77.5
2018-12-20T07:09:15.347Z,77.1
2018-12-20T07:12:14.993Z,77.0
2018-12-20T07:15:15.781Z,76.7
2018-12-20T07:18:15.805Z,76.3
2018-12-20T07:21:16.072Z,76.5
2018-12-20T07:24:15.830Z,76.7
2018-12-20T07:27:15.598Z,76.1
2018-12-20T07:30:15.500Z,76.2
2018-12-20T07:33:15.204Z,76.0
2018-12-20T07:36:14.848Z,76.1
2018-12-20T07:39:15.593Z,76.3
2018-12-20T07:42:15.270Z,76.3
2018-12-20T07:45:15.027Z,76.0
2018-12-20T07:48:15.787Z,76.2
2018-12-20T07:51:15.000Z,76.1
2018-12-20T07:54:15.749Z,76.0
2018-12-20T07:57:15.535Z,75.8
2018-12-20T08:00:15.330Z,75.8
2018-12-20T08:03:15.233Z,75.8
2018-12-20T08:06:15.045Z,75.5
2018-12-20T08:09:15.829Z,75.3
2018-12-20T08:12:15.568Z,75.1
2018-12-20T08:15:15.186Z,75.2
2018-12-20T08:18:15.389Z,75.1
2018-12-20T08:21:15.188Z,75.0
2018-12-20T08:24:15.012Z,75.0
2018-12-20T08:27:15.774Z,74.7
2018-12-20T08:30:15.740Z,74.7
2018-12-20T08:33:15.522Z,74.5
2018-12-20T08:36:15.723Z,74.2
2018-12-20T08:39:15.373Z,73.9
2018-12-20T08:42:15.223Z,74.1
2018-12-20T08:45:14.989Z,73.9
2018-12-20T08:48:15.674Z,73.9
2018-12-20T08:51:15.332Z,73.5
2018-12-20T08:54:15.286Z,73.7
2018-12-20T08:57:14.946Z,73.9
2018-12-20T09:00:15.708Z,73.5
2018-12-20T09:03:15.552Z,73.3
2018-12-20T09:06:15.359Z,73.4
2018-12-20T09:09:15.084Z,73.3
2018-12-20T09:12:15.141Z,73.4
2018-12-20T09:15:15.882Z,73.4
2018-12-20T09:18:15.735Z,73.1
2018-12-20T09:21:15.412Z,73.2
2018-12-20T09:24:15.309Z,73.6
2018-12-20T09:27:14.835Z,73.8
2018-12-20T09:30:15.588Z,73.7
2018-12-20T09:33:15.659Z,73.9
2018-12-20T09:36:15.400Z,73.5
2018-12-20T09:39:15.309Z,73.3
2018-12-20T09:42:15.164Z,73.2
2018-12-20T09:45:15.021Z,73.0
2018-12-20T09:48:15.851Z,73.0
2018-12-20T09:51:15.580Z,73.3
2018-12-20T09:54:15.487Z,73.5
2018-12-20T09:57:15.133Z,73.4
2018-12-20T10:00:15.825Z,73.3
2018-12-20T10:03:15.459Z,73.2
2018-12-20T10:06:15.173Z,72.6
2018-12-20T10:09:15.874Z,72.4
2018-12-20T10:12:15.937Z,72.4
2018-12-20T10:15:15.549Z,72.4
2018-12-20T10:18:15.537Z,72.4
2018-12-20T10:21:15.243Z,72.3
2018-12-20T10:24:15.245Z,72.7
2018-12-20T10:27:15.799Z,73.9
2018-12-20T10:30:15.264Z,73.9
2018-12-20T10:33:15.271Z,74.2
2018-12-20T10:36:15.138Z,74.3
2018-12-20T10:39:15.841Z,74.4
2018-12-20T10:42:15.883Z,74.6
2018-12-20T10:45:15.145Z,74.2
2018-12-20T10:48:15.485Z,74.0
2018-12-20T10:51:15.323Z,73.5
2018-12-20T10:54:16.013Z,73.4
2018-12-20T10:57:15.977Z,73.2
2018-12-20T11:00:15.080Z,73.2
2018-12-20T11:03:15.825Z,72.5
2018-12-20T11:06:15.597Z,72.5
2018-12-20T11:09:15.502Z,71.6
2018-12-20T11:12:15.136Z,72.2
2018-12-20T11:15:15.249Z,72.2
2018-12-20T11:18:15.063Z,71.6
2018-12-20T11:39:23.950Z,70.1
2018-12-20T11:42:24.689Z,70.0
2018-12-20T11:45:23.464Z,69.4
2018-12-20T11:51:19.883Z,68.6
2018-12-20T11:54:32.256Z,68.0
2018-12-20T11:56:20.879Z,69.3
2018-12-20T12:00:18.038Z,66.1
2018-12-20T12:03:20.409Z,66.9
2018-12-20T12:04:33.608Z,66.3
2018-12-20T12:06:25.888Z,67.1
2018-12-20T12:09:36.219Z,66.0
2018-12-20T12:12:34.547Z,67.0
2018-12-20T12:16:00.082Z,67.5
2018-12-20T12:18:15.778Z,67.8
2018-12-20T12:21:15.422Z,67.4
2018-12-20T12:24:15.173Z,67.1
2018-12-20T12:27:15.887Z,67.3
2018-12-20T12:30:15.540Z,67.0
2018-12-20T12:33:15.440Z,67.2
2018-12-20T12:36:15.117Z,67.4
2018-12-20T12:39:15.261Z,67.7
2018-12-20T12:42:15.118Z,67.5
2018-12-20T12:45:15.035Z,67.8
2018-12-20T12:48:15.721Z,67.1
2018-12-20T12:51:15.475Z,67.7
2018-12-20T12:54:15.652Z,67.1
2018-12-20T12:57:22.359Z,66.1
2018-12-20T13:00:15.453Z,66.0
2018-12-20T13:03:15.125Z,65.7
2018-12-20T13:06:15.925Z,65.6
2018-12-20T13:09:15.652Z,66.6
2018-12-20T13:12:15.436Z,66.5
2018-12-20T13:15:15.420Z,66.7
2018-12-20T13:18:16.240Z,66.4
2018-12-20T13:21:16.047Z,67.0
2018-12-20T13:24:15.164Z,66.9
2018-12-20T13:27:15.471Z,67.0
2018-12-20T13:30:15.037Z,66.8
2018-12-20T13:33:15.524Z,67.1
2018-12-20T13:36:15.594Z,66.6
2018-12-20T13:39:15.289Z,67.3
2018-12-20T13:42:15.679Z,67.6
2018-12-20T13:45:15.367Z,67.8
2018-12-20T13:48:22.186Z,68.1
2018-12-20T13:51:15.509Z,68.3
2018-12-20T13:54:15.407Z,68.7
2018-12-20T13:57:15.106Z,68.6
2018-12-20T14:00:15.784Z,68.5
2018-12-20T14:03:15.499Z,68.7
2018-12-20T14:06:15.279Z,69.0
2018-12-20T14:12:15.722Z,70.2
2018-12-20T14:15:15.516Z,70.8
2018-12-20T14:18:15.297Z,71.2
2018-12-20T14:21:15.976Z,71.4
2018-12-20T14:24:15.748Z,71.3
2018-12-20T14:27:15.939Z,71.2
2018-12-20T14:30:15.006Z,71.3
2018-12-20T14:33:15.762Z,71.3
2018-12-20T14:36:15.086Z,71.3
2018-12-20T14:39:14.969Z,71.5
2018-12-20T14:42:15.791Z,71.0
2018-12-20T14:45:15.650Z,71.0
2018-12-20T14:48:15.315Z,71.1
2018-12-20T14:51:15.532Z,71.0
2018-12-20T14:54:15.296Z,71.0
2018-12-20T14:57:15.283Z,70.6
2018-12-20T15:00:15.168Z,70.0
2018-12-20T15:03:15.094Z,70.1
2018-12-20T15:06:15.814Z,70.2
2018-12-20T15:09:15.709Z,70.1
2018-12-20T15:12:15.489Z,70.2
2018-12-20T15:15:15.142Z,70.1
2018-12-20T15:18:15.278Z,70.4
2018-12-20T15:21:16.489Z,70.2
2018-12-20T15:24:15.459Z,70.5
2018-12-20T15:27:15.406Z,70.2
2018-12-20T15:30:15.208Z,70.4
2018-12-20T15:33:15.853Z,70.5
2018-12-20T15:36:14.924Z,70.4
2018-12-20T15:39:15.852Z,70.6
2018-12-20T15:42:15.235Z,70.7
2018-12-20T15:45:15.164Z,71.0
2018-12-20T15:48:15.862Z,70.8
2018-12-20T15:51:15.546Z,70.8
2018-12-20T15:54:15.505Z,71.1
2018-12-20T16:00:15.610Z,71.0
2018-12-20T16:03:15.279Z,71.0
2018-12-20T16:06:14.910Z,71.0
2018-12-20T16:09:15.714Z,71.1
2018-12-20T16:12:15.498Z,70.5
2018-12-20T16:15:15.235Z,70.9
2018-12-20T16:18:15.119Z,71.1
2018-12-20T16:21:14.932Z,70.6
2018-12-20T16:24:15.631Z,70.4
2018-12-20T16:27:15.323Z,70.5
2018-12-20T16:30:15.230Z,70.6
2018-12-20T16:33:15.180Z,70.3
2018-12-20T16:36:15.659Z,70.4
2018-12-20T16:39:15.786Z,70.2
2018-12-20T16:42:15.569Z,70.0
2018-12-20T16:45:15.315Z,70.1
2018-12-20T16:48:15.027Z,70.3
2018-12-20T16:51:15.621Z,70.0
2018-12-20T16:54:15.624Z,70.2
2018-12-20T16:57:15.414Z,70.2
2018-12-20T17:00:15.188Z,70.4
2018-12-20T17:03:15.739Z,70.2
2018-12-20T17:06:15.771Z,70.3
2018-12-20T17:09:15.611Z,70.4
2018-12-20T17:12:15.276Z,70.3
2018-12-20T17:15:15.983Z,70.2
2018-12-20T17:18:15.020Z,70.5
2018-12-20T17:21:15.215Z,70.5
2018-12-20T17:24:20.920Z,70.4
2018-12-20T17:27:15.493Z,70.3
2018-12-20T17:30:15.226Z,70.2
2018-12-20T17:33:15.679Z,70.5
2018-12-20T17:36:15.380Z,70.6
2018-12-20T17:39:15.101Z,70.5
2018-12-20T17:42:15.836Z,70.3
2018-12-20T17:45:16.032Z,70.4
2018-12-20T17:48:15.725Z,70.6
2018-12-20T17:51:15.064Z,70.4
2018-12-20T17:54:15.782Z,70.5
2018-12-20T17:57:15.427Z,70.6
2018-12-20T18:00:15.089Z,70.5
2018-12-20T18:03:15.755Z,70.6
2018-12-20T18:06:15.801Z,70.7
2018-12-20T18:09:15.390Z,70.8
2018-12-20T18:12:15.089Z,71.0
2018-12-20T18:15:14.901Z,71.0
2018-12-20T18:18:15.843Z,71.0
2018-12-20T18:21:15.796Z,71.5
2018-12-20T18:24:15.369Z,71.7
2018-12-20T18:27:14.856Z,71.8
2018-12-20T18:30:15.662Z,71.4
2018-12-20T18:33:15.476Z,71.7
2018-12-20T18:36:15.715Z,71.3
2018-12-20T18:39:15.437Z,71.4
2018-12-20T18:42:15.269Z,71.5
2018-12-20T18:45:15.008Z,71.3
2018-12-20T18:48:15.129Z,71.2
2018-12-20T18:51:15.078Z,71.4
2018-12-20T18:54:15.011Z,71.1
2018-12-20T18:57:15.158Z,71.0
2018-12-20T19:00:15.093Z,70.9
2018-12-20T19:03:15.034Z,70.9
2018-12-20T19:06:15.790Z,70.7
2018-12-20T19:09:15.539Z,70.6
2018-12-20T19:12:15.327Z,70.6
2018-12-20T19:15:15.664Z,70.6
2018-12-20T19:18:15.673Z,70.5
2018-12-20T19:21:15.480Z,70.3
2018-12-20T19:24:15.824Z,70.3
2018-12-20T19:27:15.332Z,70.2
2018-12-20T19:30:15.106Z,70.5
2018-12-20T19:33:15.763Z,70.7
2018-12-20T19:36:15.704Z,70.6
2018-12-20T19:39:15.818Z,70.8
2018-12-20T19:42:15.854Z,70.8
2018-12-20T19:45:15.700Z,70.8
2018-12-20T19:48:15.582Z,70.9
2018-12-20T19:51:17.149Z,71.2
2018-12-20T19:54:15.002Z,71.5
2018-12-20T19:57:15.054Z,71.3
2018-12-20T20:00:15.988Z,71.5
2018-12-20T20:03:15.755Z,71.6
2018-12-20T20:06:15.591Z,71.5
2018-12-20T20:09:15.121Z,71.4
2018-12-20T20:12:14.860Z,71.4
2018-12-20T20:15:16.812Z,71.4
2018-12-20T20:18:15.180Z,71.5
2018-12-20T20:21:15.667Z,71.3
2018-12-20T20:24:20.424Z,71.4
2018-12-20T20:27:15.833Z,71.1
2018-12-20T20:30:15.392Z,71.0
2018-12-20T20:33:15.737Z,70.8
2018-12-20T20:36:15.132Z,71.0
2018-12-20T20:39:15.211Z,70.8
2018-12-20T20:42:15.251Z,70.6
2018-12-20T20:45:16.506Z,70.8
2018-12-20T20:48:19.929Z,70.5
2018-12-20T20:51:15.365Z,70.3
2018-12-20T20:54:15.440Z,70.7
2018-12-20T20:57:15.483Z,70.6
2018-12-20T21:00:15.375Z,70.6
2018-12-20T21:03:16.277Z,70.5
2018-12-20T21:06:15.631Z,70.8
2018-12-20T21:09:15.435Z,70.9
2018-12-20T21:12:22.603Z,71.0
2018-12-20T21:15:16.275Z,71.7
2018-12-20T21:18:15.368Z,71.7
2018-12-20T21:21:15.304Z,71.8
2018-12-20T21:24:16.432Z,71.6
2018-12-20T21:27:15.865Z,71.5
2018-12-20T21:30:15.743Z,71.6
2018-12-20T21:33:16.222Z,71.8
2018-12-20T21:36:15.227Z,71.4
2018-12-20T21:39:15.492Z,71.3
2018-12-20T21:42:15.149Z,71.3
2018-12-20T21:45:15.007Z,71.2
2018-12-20T21:48:15.761Z,71.1
2018-12-20T21:51:15.508Z,71.1
2018-12-20T21:54:15.312Z,71.2
2018-12-20T21:57:15.227Z,71.0
2018-12-20T22:00:14.933Z,70.9
2018-12-20T22:03:15.791Z,70.9
2018-12-20T22:06:15.472Z,70.9
2018-12-20T22:09:15.235Z,70.9
2018-12-20T22:12:16.617Z,70.9
2018-12-20T22:15:15.472Z,70.8
2018-12-20T22:18:15.475Z,70.4
2018-12-20T22:21:15.300Z,70.6
2018-12-20T22:24:15.831Z,70.6
2018-12-20T22:27:15.497Z,70.5
2018-12-20T22:30:15.162Z,70.5
2018-12-20T22:33:15.798Z,70.4
2018-12-20T22:36:15.401Z,70.2
2018-12-20T22:39:15.091Z,70.1
2018-12-20T22:42:14.856Z,69.9
2018-12-20T22:45:15.653Z,70.1
2018-12-20T22:48:15.331Z,70.1
2018-12-20T22:51:15.325Z,70.1
2018-12-20T22:54:14.926Z,70.1
2018-12-20T22:57:15.493Z,70.0
2018-12-20T23:00:15.190Z,69.9
2018-12-20T23:03:16.053Z,69.7
2018-12-20T23:06:15.662Z,69.8
2018-12-20T23:09:15.634Z,69.4
2018-12-20T23:12:15.281Z,69.8
2018-12-20T23:15:15.878Z,69.7
2018-12-20T23:18:15.543Z,69.7
2018-12-20T23:21:15.416Z,69.8
2018-12-20T23:24:15.114Z,69.7
2018-12-20T23:27:15.673Z,69.8
2018-12-20T23:30:15.313Z,69.7
2018-12-20T23:33:15.862Z,69.6
2018-12-20T23:36:15.600Z,69.6
2018-12-20T23:39:15.309Z,69.5
2018-12-20T23:42:14.882Z,69.7
2018-12-20T23:45:15.391Z,69.8
2018-12-20T23:48:15.851Z,69.9
2018-12-20T23:51:15.399Z,69.9
2018-12-20T23:54:15.045Z,69.6
2018-12-20T23:57:15.564Z,69.9
